Terminal Aerodrome Forecast
Issued by NWS Norman, OK

Home | Current Version | Previous Version | Text Only | Print | Product List | Glossary On
Versions: 1 2 3 4 5 6 7 8 9 10 11 12 13 14 15 16 17 18 19 20 21 22 23 24 25
000
FTUS44 KOUN 261132
TAFSPS
TAF
KSPS 261132Z 2612/2712 12007KT P6SM SCT250
     FM261800 10011KT P6SM SCT035 BKN250
     FM262100 15014G21KT P6SM BKN040
      TEMPO 2621/2624 2SM TSRA BR OVC030CB
     FM270000 14013G20KT 3SM TSRA BR OVC030CB
      TEMPO 2700/2704 1SM TSRA BR OVC015CB
     FM270400 05014G20KT 3SM -TSRA BR OVC012CB=

USA.gov is the U.S. government's official web portal to all federal, state and local government web resources and services.